sensor_id;sensor_type;location;lat;lon;timestamp;temperature;humidity
52889;DHT22;41413;52.770;6.892;2023-03-01T00:00:09;0.10;99.90
52889;DHT22;41413;52.770;6.892;2023-03-01T00:02:35;0.20;99.90
52889;DHT22;41413;52.770;6.892;2023-03-01T00:05:03;0.10;99.90
52889;DHT22;41413;52.770;6.892;2023-03-01T00:07:30;0.10;99.90
52889;DHT22;41413;52.770;6.892;2023-03-01T00:09:57;0.00;99.90
52889;DHT22;41413;52.770;6.892;2023-03-01T00:12:24;-0.10;99.90
52889;DHT22;41413;52.770;6.892;2023-03-01T00:14:50;0.00;99.90
52889;DHT22;41413;52.770;6.892;2023-03-01T00:17:17;0.10;99.90
52889;DHT22;41413;52.770;6.892;2023-03-01T00:19:44;-0.10;99.90
52889;DHT22;41413;52.770;6.892;2023-03-01T00:22:10;-0.10;99.90
52889;DHT22;41413;52.770;6.892;2023-03-01T00:24:37;-0.20;99.90
52889;DHT22;41413;52.770;6.892;2023-03-01T00:27:04;-0.20;99.90
52889;DHT22;41413;52.770;6.892;2023-03-01T00:29:30;-0.10;99.90
52889;DHT22;41413;52.770;6.892;2023-03-01T00:31:57;-0.20;99.90
52889;DHT22;41413;52.770;6.892;2023-03-01T00:34:24;-0.20;99.90
52889;DHT22;41413;52.770;6.892;2023-03-01T00:36:50;-0.30;99.90
52889;DHT22;41413;52.770;6.892;2023-03-01T00:39:17;-0.30;99.90
52889;DHT22;41413;52.770;6.892;2023-03-01T00:41:44;-0.30;99.90
52889;DHT22;41413;52.770;6.892;2023-03-01T00:44:10;-0.30;99.90
52889;DHT22;41413;52.770;6.892;2023-03-01T00:46:38;-0.30;99.90
52889;DHT22;41413;52.770;6.892;2023-03-01T00:49:05;-0.40;99.90
52889;DHT22;41413;52.770;6.892;2023-03-01T00:51:32;-0.40;99.90
52889;DHT22;41413;52.770;6.892;2023-03-01T00:54:00;-0.40;99.90
52889;DHT22;41413;52.770;6.892;2023-03-01T00:56:27;-0.40;99.90
52889;DHT22;41413;52.770;6.892;2023-03-01T00:58:55;-0.40;99.90
52889;DHT22;41413;52.770;6.892;2023-03-01T01:01:27;-0.30;99.90
52889;DHT22;41413;52.770;6.892;2023-03-01T01:04:00;-0.40;99.90
52889;DHT22;41413;52.770;6.892;2023-03-01T01:06:30;-0.50;99.90
52889;DHT22;41413;52.770;6.892;2023-03-01T01:08:58;-0.40;99.90
52889;DHT22;41413;52.770;6.892;2023-03-01T01:11:27;-0.40;99.90
52889;DHT22;41413;52.770;6.892;2023-03-01T01:13:54;-0.40;99.90
52889;DHT22;41413;52.770;6.892;2023-03-01T01:16:24;-0.50;99.90
52889;DHT22;41413;52.770;6.892;2023-03-01T01:18:51;-0.50;99.90
52889;DHT22;41413;52.770;6.892;2023-03-01T01:21:20;-0.60;99.90
52889;DHT22;41413;52.770;6.892;2023-03-01T01:23:48;-0.70;99.90
52889;DHT22;41413;52.770;6.892;2023-03-01T01:26:19;-0.60;99.90
52889;DHT22;41413;52.770;6.892;2023-03-01T01:28:46;-0.60;99.90
52889;DHT22;41413;52.770;6.892;2023-03-01T01:31:13;-0.60;99.90
52889;DHT22;41413;52.770;6.892;2023-03-01T01:33:40;-0.70;99.90
52889;DHT22;41413;52.770;6.892;2023-03-01T01:36:07;-0.80;99.90
52889;DHT22;41413;52.770;6.892;2023-03-01T01:38:35;-0.80;99.90
52889;DHT22;41413;52.770;6.892;2023-03-01T01:41:03;-0.70;99.90
52889;DHT22;41413;52.770;6.892;2023-03-01T01:43:37;-0.80;99.90
52889;DHT22;41413;52.770;6.892;2023-03-01T01:46:21;-0.80;99.90
52889;DHT22;41413;52.770;6.892;2023-03-01T01:48:55;-0.80;99.90
52889;DHT22;41413;52.770;6.892;2023-03-01T01:51:28;-0.80;99.90
52889;DHT22;41413;52.770;6.892;2023-03-01T01:54:12;-0.80;99.90
52889;DHT22;41413;52.770;6.892;2023-03-01T01:56:40;-0.70;99.90
52889;DHT22;41413;52.770;6.892;2023-03-01T01:59:09;-0.60;99.90
52889;DHT22;41413;52.770;6.892;2023-03-01T02:01:36;-0.60;99.90
52889;DHT22;41413;52.770;6.892;2023-03-01T02:04:03;-0.60;99.90
52889;DHT22;41413;52.770;6.892;2023-03-01T02:06:37;-0.70;99.90
52889;DHT22;41413;52.770;6.892;2023-03-01T02:09:12;-0.60;99.90
52889;DHT22;41413;52.770;6.892;2023-03-01T02:11:40;-0.50;99.90
52889;DHT22;41413;52.770;6.892;2023-03-01T02:14:06;-0.60;99.90
52889;DHT22;41413;52.770;6.892;2023-03-01T02:16:33;-0.50;99.90
52889;DHT22;41413;52.770;6.892;2023-03-01T02:19:01;-0.60;99.90
52889;DHT22;41413;52.770;6.892;2023-03-01T02:21:58;-0.70;99.90
52889;DHT22;41413;52.770;6.892;2023-03-01T02:24:49;-0.70;99.90
52889;DHT22;41413;52.770;6.892;2023-03-01T02:27:22;-0.80;99.90
52889;DHT22;41413;52.770;6.892;2023-03-01T02:29:52;-0.90;99.90
52889;DHT22;41413;52.770;6.892;2023-03-01T02:32:19;-0.90;99.90
52889;DHT22;41413;52.770;6.892;2023-03-01T02:34:53;-0.90;99.90
52889;DHT22;41413;52.770;6.892;2023-03-01T02:37:21;-0.90;99.90
52889;DHT22;41413;52.770;6.892;2023-03-01T02:39:56;-1.00;99.90
52889;DHT22;41413;52.770;6.892;2023-03-01T02:42:28;-1.00;99.90
52889;DHT22;41413;52.770;6.892;2023-03-01T02:44:56;-0.90;99.90
52889;DHT22;41413;52.770;6.892;2023-03-01T02:47:23;-1.00;99.90
52889;DHT22;41413;52.770;6.892;2023-03-01T02:49:50;-1.10;99.90
52889;DHT22;41413;52.770;6.892;2023-03-01T02:55:14;-1.10;99.90
52889;DHT22;41413;52.770;6.892;2023-03-01T02:57:44;-1.10;99.90
52889;DHT22;41413;52.770;6.892;2023-03-01T03:00:27;-1.10;99.90
52889;DHT22;41413;52.770;6.892;2023-03-01T03:02:55;-1.10;99.90
52889;DHT22;41413;52.770;6.892;2023-03-01T03:05:26;-1.10;99.90
52889;DHT22;41413;52.770;6.892;2023-03-01T03:07:53;-1.10;99.90
52889;DHT22;41413;52.770;6.892;2023-03-01T03:10:26;-1.20;99.90
52889;DHT22;41413;52.770;6.892;2023-03-01T03:12:59;-1.20;99.90
52889;DHT22;41413;52.770;6.892;2023-03-01T03:15:27;-1.20;99.90
52889;DHT22;41413;52.770;6.892;2023-03-01T03:17:54;-1.20;99.90
52889;DHT22;41413;52.770;6.892;2023-03-01T03:20:24;-1.30;99.90
52889;DHT22;41413;52.770;6.892;2023-03-01T03:22:53;-1.30;99.90
52889;DHT22;41413;52.770;6.892;2023-03-01T03:25:21;-1.30;99.90
52889;DHT22;41413;52.770;6.892;2023-03-01T03:27:49;-1.40;99.90
52889;DHT22;41413;52.770;6.892;2023-03-01T03:30:18;-1.30;99.90
52889;DHT22;41413;52.770;6.892;2023-03-01T03:32:46;-1.30;99.90
52889;DHT22;41413;52.770;6.892;2023-03-01T03:35:31;-1.40;99.90
52889;DHT22;41413;52.770;6.892;2023-03-01T03:38:01;-1.40;99.90
52889;DHT22;41413;52.770;6.892;2023-03-01T03:40:34;-1.40;99.90
52889;DHT22;41413;52.770;6.892;2023-03-01T03:43:03;-1.40;99.90
52889;DHT22;41413;52.770;6.892;2023-03-01T03:45:30;-1.40;99.90
52889;DHT22;41413;52.770;6.892;2023-03-01T03:48:00;-1.40;99.90
52889;DHT22;41413;52.770;6.892;2023-03-01T03:50:27;-1.50;99.90
52889;DHT22;41413;52.770;6.892;2023-03-01T03:52:54;-1.50;99.90
52889;DHT22;41413;52.770;6.892;2023-03-01T03:55:21;-1.50;99.90
52889;DHT22;41413;52.770;6.892;2023-03-01T03:57:48;-1.50;99.90
52889;DHT22;41413;52.770;6.892;2023-03-01T04:00:20;-1.50;99.90
52889;DHT22;41413;52.770;6.892;2023-03-01T04:02:48;-1.50;99.90
52889;DHT22;41413;52.770;6.892;2023-03-01T04:05:16;-1.50;99.90
52889;DHT22;41413;52.770;6.892;2023-03-01T04:07:45;-1.50;99.90
52889;DHT22;41413;52.770;6.892;2023-03-01T04:10:16;-1.50;99.90
52889;DHT22;41413;52.770;6.892;2023-03-01T04:12:44;-1.50;99.90
52889;DHT22;41413;52.770;6.892;2023-03-01T04:15:11;-1.50;99.90
52889;DHT22;41413;52.770;6.892;2023-03-01T04:17:42;-1.50;99.90
52889;DHT22;41413;52.770;6.892;2023-03-01T04:20:10;-1.50;99.90
52889;DHT22;41413;52.770;6.892;2023-03-01T04:22:39;-1.50;99.90
52889;DHT22;41413;52.770;6.892;2023-03-01T04:25:06;-1.50;99.90
52889;DHT22;41413;52.770;6.892;2023-03-01T04:27:34;-1.60;99.90
52889;DHT22;41413;52.770;6.892;2023-03-01T04:30:02;-1.50;99.90
52889;DHT22;41413;52.770;6.892;2023-03-01T04:32:29;-1.50;99.90
52889;DHT22;41413;52.770;6.892;2023-03-01T04:34:56;-1.50;99.90
52889;DHT22;41413;52.770;6.892;2023-03-01T04:37:23;-1.60;99.90
52889;DHT22;41413;52.770;6.892;2023-03-01T04:39:50;-1.60;99.90
52889;DHT22;41413;52.770;6.892;2023-03-01T04:42:17;-1.70;99.90
52889;DHT22;41413;52.770;6.892;2023-03-01T04:44:45;-1.70;99.90
52889;DHT22;41413;52.770;6.892;2023-03-01T04:47:12;-1.30;99.90
52889;DHT22;41413;52.770;6.892;2023-03-01T04:49:39;-1.80;99.90
52889;DHT22;41413;52.770;6.892;2023-03-01T04:52:05;-1.80;99.90
52889;DHT22;41413;52.770;6.892;2023-03-01T04:54:34;-1.90;99.90
52889;DHT22;41413;52.770;6.892;2023-03-01T04:57:02;-1.80;99.90
52889;DHT22;41413;52.770;6.892;2023-03-01T04:59:29;-1.80;99.90
52889;DHT22;41413;52.770;6.892;2023-03-01T05:01:56;-1.90;99.90
52889;DHT22;41413;52.770;6.892;2023-03-01T05:04:26;-1.90;99.90
52889;DHT22;41413;52.770;6.892;2023-03-01T05:06:52;-2.00;99.90
52889;DHT22;41413;52.770;6.892;2023-03-01T05:09:20;-1.90;99.90
52889;DHT22;41413;52.770;6.892;2023-03-01T05:11:46;-1.90;99.90
52889;DHT22;41413;52.770;6.892;2023-03-01T05:14:13;-1.80;99.90
52889;DHT22;41413;52.770;6.892;2023-03-01T05:16:40;-1.90;99.90
52889;DHT22;41413;52.770;6.892;2023-03-01T05:19:07;-1.90;99.90
52889;DHT22;41413;52.770;6.892;2023-03-01T05:21:44;-1.90;99.90
52889;DHT22;41413;52.770;6.892;2023-03-01T05:24:31;-1.90;99.90
52889;DHT22;41413;52.770;6.892;2023-03-01T05:26:58;-1.90;99.90
52889;DHT22;41413;52.770;6.892;2023-03-01T05:29:26;-1.90;99.90
52889;DHT22;41413;52.770;6.892;2023-03-01T05:31:58;-1.90;99.90
52889;DHT22;41413;52.770;6.892;2023-03-01T05:36:53;-2.10;99.90
52889;DHT22;41413;52.770;6.892;2023-03-01T05:39:22;-2.10;99.90
52889;DHT22;41413;52.770;6.892;2023-03-01T05:41:56;-2.10;99.90
52889;DHT22;41413;52.770;6.892;2023-03-01T05:44:24;-2.20;99.90
52889;DHT22;41413;52.770;6.892;2023-03-01T05:46:51;-2.20;99.90
52889;DHT22;41413;52.770;6.892;2023-03-01T05:49:18;-2.20;99.90
52889;DHT22;41413;52.770;6.892;2023-03-01T05:51:50;-2.20;99.90
52889;DHT22;41413;52.770;6.892;2023-03-01T05:54:17;-2.20;99.90
52889;DHT22;41413;52.770;6.892;2023-03-01T05:56:44;-2.20;99.90
52889;DHT22;41413;52.770;6.892;2023-03-01T05:59:11;-2.20;99.90
52889;DHT22;41413;52.770;6.892;2023-03-01T06:01:38;-2.20;99.90
52889;DHT22;41413;52.770;6.892;2023-03-01T06:04:05;-2.20;99.90
52889;DHT22;41413;52.770;6.892;2023-03-01T06:06:36;-2.20;99.90
52889;DHT22;41413;52.770;6.892;2023-03-01T06:09:06;-2.30;99.90
52889;DHT22;41413;52.770;6.892;2023-03-01T06:11:35;-2.30;99.90
52889;DHT22;41413;52.770;6.892;2023-03-01T06:14:03;-2.30;99.90
52889;DHT22;41413;52.770;6.892;2023-03-01T06:16:30;-2.30;99.90
52889;DHT22;41413;52.770;6.892;2023-03-01T06:18:57;-2.30;99.90
52889;DHT22;41413;52.770;6.892;2023-03-01T06:21:24;-2.30;99.90
52889;DHT22;41413;52.770;6.892;2023-03-01T06:23:50;-2.30;99.90
52889;DHT22;41413;52.770;6.892;2023-03-01T06:26:18;-2.30;99.90
52889;DHT22;41413;52.770;6.892;2023-03-01T06:28:45;-2.30;99.90
52889;DHT22;41413;52.770;6.892;2023-03-01T06:31:12;-1.80;99.90
52889;DHT22;41413;52.770;6.892;2023-03-01T06:33:39;-2.20;99.90
52889;DHT22;41413;52.770;6.892;2023-03-01T06:36:06;-2.20;99.90
52889;DHT22;41413;52.770;6.892;2023-03-01T06:38:33;-2.20;99.90
52889;DHT22;41413;52.770;6.892;2023-03-01T06:41:00;-2.20;99.90
52889;DHT22;41413;52.770;6.892;2023-03-01T06:43:27;-2.10;99.90
52889;DHT22;41413;52.770;6.892;2023-03-01T06:45:54;-2.00;99.90
52889;DHT22;41413;52.770;6.892;2023-03-01T06:48:21;-1.90;99.90
52889;DHT22;41413;52.770;6.892;2023-03-01T06:50:47;-1.70;99.90
52889;DHT22;41413;52.770;6.892;2023-03-01T06:53:14;-1.40;99.90
52889;DHT22;41413;52.770;6.892;2023-03-01T06:55:41;-1.30;99.90
52889;DHT22;41413;52.770;6.892;2023-03-01T06:58:08;-1.10;99.90
52889;DHT22;41413;52.770;6.892;2023-03-01T07:00:35;-0.90;99.90
52889;DHT22;41413;52.770;6.892;2023-03-01T07:03:02;-0.40;99.90
52889;DHT22;41413;52.770;6.892;2023-03-01T07:05:30;0.40;99.90
52889;DHT22;41413;52.770;6.892;2023-03-01T07:07:57;0.90;99.90
52889;DHT22;41413;52.770;6.892;2023-03-01T07:10:24;1.30;99.90
52889;DHT22;41413;52.770;6.892;2023-03-01T07:12:54;1.50;99.90
52889;DHT22;41413;52.770;6.892;2023-03-01T07:15:21;1.50;99.90
52889;DHT22;41413;52.770;6.892;2023-03-01T07:17:47;1.30;99.90
52889;DHT22;41413;52.770;6.892;2023-03-01T07:20:18;1.00;99.90
52889;DHT22;41413;52.770;6.892;2023-03-01T07:22:44;0.80;99.90
52889;DHT22;41413;52.770;6.892;2023-03-01T07:25:11;0.50;99.90
52889;DHT22;41413;52.770;6.892;2023-03-01T07:27:38;0.30;99.90
52889;DHT22;41413;52.770;6.892;2023-03-01T07:30:05;0.30;99.90
52889;DHT22;41413;52.770;6.892;2023-03-01T07:32:32;0.20;99.90
52889;DHT22;41413;52.770;6.892;2023-03-01T07:34:59;0.20;99.90
52889;DHT22;41413;52.770;6.892;2023-03-01T07:37:25;0.30;99.90
52889;DHT22;41413;52.770;6.892;2023-03-01T07:39:52;0.50;99.90
52889;DHT22;41413;52.770;6.892;2023-03-01T07:42:19;0.70;99.90
52889;DHT22;41413;52.770;6.892;2023-03-01T07:44:45;0.90;99.90
52889;DHT22;41413;52.770;6.892;2023-03-01T07:47:12;1.10;99.90
52889;DHT22;41413;52.770;6.892;2023-03-01T07:49:39;1.30;99.90
52889;DHT22;41413;52.770;6.892;2023-03-01T07:52:05;1.50;99.90
52889;DHT22;41413;52.770;6.892;2023-03-01T07:54:32;1.90;99.90
52889;DHT22;41413;52.770;6.892;2023-03-01T07:56:59;2.10;99.90
52889;DHT22;41413;52.770;6.892;2023-03-01T07:59:25;2.20;99.90
52889;DHT22;41413;52.770;6.892;2023-03-01T08:01:58;2.50;99.90
52889;DHT22;41413;52.770;6.892;2023-03-01T08:04:25;2.70;99.90
52889;DHT22;41413;52.770;6.892;2023-03-01T08:06:54;3.10;99.90
52889;DHT22;41413;52.770;6.892;2023-03-01T08:09:21;3.50;99.90
52889;DHT22;41413;52.770;6.892;2023-03-01T08:11:48;4.00;99.90
52889;DHT22;41413;52.770;6.892;2023-03-01T08:14:14;4.70;99.90
52889;DHT22;41413;52.770;6.892;2023-03-01T08:16:41;5.40;99.90
52889;DHT22;41413;52.770;6.892;2023-03-01T08:19:10;6.50;99.90
52889;DHT22;41413;52.770;6.892;2023-03-01T08:21:37;7.40;99.90
52889;DHT22;41413;52.770;6.892;2023-03-01T08:24:05;8.10;99.90
52889;DHT22;41413;52.770;6.892;2023-03-01T08:26:33;8.90;99.90
52889;DHT22;41413;52.770;6.892;2023-03-01T08:29:00;9.50;99.90
52889;DHT22;41413;52.770;6.892;2023-03-01T08:31:33;10.00;99.90
52889;DHT22;41413;52.770;6.892;2023-03-01T08:34:07;10.60;99.90
52889;DHT22;41413;52.770;6.892;2023-03-01T08:36:40;10.80;99.90
52889;DHT22;41413;52.770;6.892;2023-03-01T08:39:08;11.30;99.90
52889;DHT22;41413;52.770;6.892;2023-03-01T08:41:36;11.50;99.90
52889;DHT22;41413;52.770;6.892;2023-03-01T08:44:03;11.70;99.90
52889;DHT22;41413;52.770;6.892;2023-03-01T08:46:32;12.20;99.90
52889;DHT22;41413;52.770;6.892;2023-03-01T08:49:00;12.30;98.70
52889;DHT22;41413;52.770;6.892;2023-03-01T08:51:27;12.60;99.00
52889;DHT22;41413;52.770;6.892;2023-03-01T08:53:53;12.90;97.50
52889;DHT22;41413;52.770;6.892;2023-03-01T08:56:20;13.20;95.50
52889;DHT22;41413;52.770;6.892;2023-03-01T08:58:48;13.10;95.70
52889;DHT22;41413;52.770;6.892;2023-03-01T09:01:18;13.40;95.50
52889;DHT22;41413;52.770;6.892;2023-03-01T09:03:45;13.50;94.60
52889;DHT22;41413;52.770;6.892;2023-03-01T09:06:12;13.90;93.70
52889;DHT22;41413;52.770;6.892;2023-03-01T09:08:43;14.10;92.80
52889;DHT22;41413;52.770;6.892;2023-03-01T09:11:12;14.60;90.90
52889;DHT22;41413;52.770;6.892;2023-03-01T09:13:39;14.40;90.40
52889;DHT22;41413;52.770;6.892;2023-03-01T09:16:12;14.80;90.80
52889;DHT22;41413;52.770;6.892;2023-03-01T09:18:39;14.70;90.20
52889;DHT22;41413;52.770;6.892;2023-03-01T09:21:15;15.00;88.00
52889;DHT22;41413;52.770;6.892;2023-03-01T09:23:46;14.70;84.10
52889;DHT22;41413;52.770;6.892;2023-03-01T09:26:19;15.00;84.60
52889;DHT22;41413;52.770;6.892;2023-03-01T09:28:46;14.90;84.10
52889;DHT22;41413;52.770;6.892;2023-03-01T09:31:14;15.00;85.00
52889;DHT22;41413;52.770;6.892;2023-03-01T09:33:42;15.30;80.90
52889;DHT22;41413;52.770;6.892;2023-03-01T09:36:14;14.80;81.00
52889;DHT22;41413;52.770;6.892;2023-03-01T09:38:41;14.80;82.20
52889;DHT22;41413;52.770;6.892;2023-03-01T09:43:50;15.00;80.00
52889;DHT22;41413;52.770;6.892;2023-03-01T09:46:23;14.70;81.20
52889;DHT22;41413;52.770;6.892;2023-03-01T09:49:01;14.80;81.80
52889;DHT22;41413;52.770;6.892;2023-03-01T09:51:32;15.00;79.20
52889;DHT22;41413;52.770;6.892;2023-03-01T09:54:04;14.30;79.10
52889;DHT22;41413;52.770;6.892;2023-03-01T09:56:57;13.80;79.30
52889;DHT22;41413;52.770;6.892;2023-03-01T10:02:21;14.50;76.10
52889;DHT22;41413;52.770;6.892;2023-03-01T10:04:52;14.30;77.20
52889;DHT22;41413;52.770;6.892;2023-03-01T10:10:10;14.20;78.10
52889;DHT22;41413;52.770;6.892;2023-03-01T10:12:41;13.80;79.10
52889;DHT22;41413;52.770;6.892;2023-03-01T10:15:18;13.70;77.90
52889;DHT22;41413;52.770;6.892;2023-03-01T10:17:52;13.30;79.30
52889;DHT22;41413;52.770;6.892;2023-03-01T10:20:31;13.40;79.20
52889;DHT22;41413;52.770;6.892;2023-03-01T10:23:00;13.70;81.30
52889;DHT22;41413;52.770;6.892;2023-03-01T10:28:13;14.10;79.10
52889;DHT22;41413;52.770;6.892;2023-03-01T10:30:42;13.90;78.80
52889;DHT22;41413;52.770;6.892;2023-03-01T10:33:32;13.40;79.60
52889;DHT22;41413;52.770;6.892;2023-03-01T10:36:00;13.10;81.20
52889;DHT22;41413;52.770;6.892;2023-03-01T10:38:30;13.40;79.50
52889;DHT22;41413;52.770;6.892;2023-03-01T10:41:05;13.50;80.20
52889;DHT22;41413;52.770;6.892;2023-03-01T10:46:35;13.30;79.70
52889;DHT22;41413;52.770;6.892;2023-03-01T10:49:21;13.30;78.10
52889;DHT22;41413;52.770;6.892;2023-03-01T10:51:50;13.10;79.30
52889;DHT22;41413;52.770;6.892;2023-03-01T10:54:28;13.20;81.90
52889;DHT22;41413;52.770;6.892;2023-03-01T10:56:57;13.20;81.90
52889;DHT22;41413;52.770;6.892;2023-03-01T10:59:33;13.50;80.50
52889;DHT22;41413;52.770;6.892;2023-03-01T11:07:59;14.20;77.40
52889;DHT22;41413;52.770;6.892;2023-03-01T11:10:27;14.10;78.80
52889;DHT22;41413;52.770;6.892;2023-03-01T11:13:13;14.30;78.20
52889;DHT22;41413;52.770;6.892;2023-03-01T11:15:41;14.60;79.20
52889;DHT22;41413;52.770;6.892;2023-03-01T11:18:22;14.90;78.80
52889;DHT22;41413;52.770;6.892;2023-03-01T11:21:07;15.00;77.80
52889;DHT22;41413;52.770;6.892;2023-03-01T11:23:37;15.10;77.60
52889;DHT22;41413;52.770;6.892;2023-03-01T11:26:08;14.80;77.60
52889;DHT22;41413;52.770;6.892;2023-03-01T11:28:40;15.00;77.40
52889;DHT22;41413;52.770;6.892;2023-03-01T11:31:10;14.50;77.70
52889;DHT22;41413;52.770;6.892;2023-03-01T11:33:47;14.40;77.70
52889;DHT22;41413;52.770;6.892;2023-03-01T11:36:36;14.50;78.50
52889;DHT22;41413;52.770;6.892;2023-03-01T11:39:32;14.50;77.90
52889;DHT22;41413;52.770;6.892;2023-03-01T11:44:54;13.70;78.60
52889;DHT22;41413;52.770;6.892;2023-03-01T11:47:27;13.20;80.50
52889;DHT22;41413;52.770;6.892;2023-03-01T11:50:57;12.90;81.50
52889;DHT22;41413;52.770;6.892;2023-03-01T11:53:48;12.50;81.60
52889;DHT22;41413;52.770;6.892;2023-03-01T11:56:34;12.40;82.50
52889;DHT22;41413;52.770;6.892;2023-03-01T12:01:59;12.20;82.90
52889;DHT22;41413;52.770;6.892;2023-03-01T12:04:52;12.20;83.00
52889;DHT22;41413;52.770;6.892;2023-03-01T12:10:20;12.00;83.00
52889;DHT22;41413;52.770;6.892;2023-03-01T12:13:03;12.00;81.90
52889;DHT22;41413;52.770;6.892;2023-03-01T12:16:05;11.90;83.30
52889;DHT22;41413;52.770;6.892;2023-03-01T12:18:50;11.80;83.90
52889;DHT22;41413;52.770;6.892;2023-03-01T12:24:38;11.80;83.80
52889;DHT22;41413;52.770;6.892;2023-03-01T12:30:05;11.60;84.00
52889;DHT22;41413;52.770;6.892;2023-03-01T12:37:59;11.50;83.10
52889;DHT22;41413;52.770;6.892;2023-03-01T12:40:56;11.50;84.60
52889;DHT22;41413;52.770;6.892;2023-03-01T12:48:59;11.50;84.80
52889;DHT22;41413;52.770;6.892;2023-03-01T12:51:31;11.60;82.90
52889;DHT22;41413;52.770;6.892;2023-03-01T12:54:05;11.40;85.20
52889;DHT22;41413;52.770;6.892;2023-03-01T12:56:35;11.50;85.20
52889;DHT22;41413;52.770;6.892;2023-03-01T12:59:15;11.40;84.50
52889;DHT22;41413;52.770;6.892;2023-03-01T13:10:33;11.20;85.50
52889;DHT22;41413;52.770;6.892;2023-03-01T13:15:37;11.20;86.00
52889;DHT22;41413;52.770;6.892;2023-03-01T13:26:14;10.80;84.50
52889;DHT22;41413;52.770;6.892;2023-03-01T13:33:59;10.90;87.30
52889;DHT22;41413;52.770;6.892;2023-03-01T13:38:58;11.00;86.40
52889;DHT22;41413;52.770;6.892;2023-03-01T13:41:52;11.00;87.30
52889;DHT22;41413;52.770;6.892;2023-03-01T13:47:14;10.80;86.70
52889;DHT22;41413;52.770;6.892;2023-03-01T13:49:53;10.60;85.80
52889;DHT22;41413;52.770;6.892;2023-03-01T13:52:53;10.60;86.30
52889;DHT22;41413;52.770;6.892;2023-03-01T13:55:36;10.70;87.90
52889;DHT22;41413;52.770;6.892;2023-03-01T13:58:23;10.60;88.00
52889;DHT22;41413;52.770;6.892;2023-03-01T14:01:02;10.80;87.80
52889;DHT22;41413;52.770;6.892;2023-03-01T14:03:31;10.70;88.10
52889;DHT22;41413;52.770;6.892;2023-03-01T14:06:26;10.60;88.80
52889;DHT22;41413;52.770;6.892;2023-03-01T14:09:17;10.70;87.50
52889;DHT22;41413;52.770;6.892;2023-03-01T14:14:46;10.70;87.90
52889;DHT22;41413;52.770;6.892;2023-03-01T14:20:23;10.60;88.00
52889;DHT22;41413;52.770;6.892;2023-03-01T14:22:53;10.50;88.70
52889;DHT22;41413;52.770;6.892;2023-03-01T14:25:30;10.40;89.30
52889;DHT22;41413;52.770;6.892;2023-03-01T14:28:04;10.30;90.10
52889;DHT22;41413;52.770;6.892;2023-03-01T14:30:41;10.30;90.20
52889;DHT22;41413;52.770;6.892;2023-03-01T14:33:25;10.20;90.20
52889;DHT22;41413;52.770;6.892;2023-03-01T14:38:37;10.20;90.50
52889;DHT22;41413;52.770;6.892;2023-03-01T14:41:10;10.20;90.70
52889;DHT22;41413;52.770;6.892;2023-03-01T14:43:39;10.20;90.80
52889;DHT22;41413;52.770;6.892;2023-03-01T14:48:55;10.10;90.60
52889;DHT22;41413;52.770;6.892;2023-03-01T14:51:24;9.90;90.40
52889;DHT22;41413;52.770;6.892;2023-03-01T14:53:51;9.90;90.90
52889;DHT22;41413;52.770;6.892;2023-03-01T14:56:20;9.80;91.20
52889;DHT22;41413;52.770;6.892;2023-03-01T14:58:51;9.70;91.40
52889;DHT22;41413;52.770;6.892;2023-03-01T15:01:18;9.80;91.40
52889;DHT22;41413;52.770;6.892;2023-03-01T15:03:47;9.80;91.10
52889;DHT22;41413;52.770;6.892;2023-03-01T15:06:18;9.80;91.30
52889;DHT22;41413;52.770;6.892;2023-03-01T15:08:48;9.70;91.30
52889;DHT22;41413;52.770;6.892;2023-03-01T15:11:28;9.70;91.40
52889;DHT22;41413;52.770;6.892;2023-03-01T15:13:55;9.60;91.50
52889;DHT22;41413;52.770;6.892;2023-03-01T15:16:32;9.70;91.20
52889;DHT22;41413;52.770;6.892;2023-03-01T15:19:03;9.60;91.30
52889;DHT22;41413;52.770;6.892;2023-03-01T15:21:32;9.60;91.60
52889;DHT22;41413;52.770;6.892;2023-03-01T15:24:22;9.50;91.50
52889;DHT22;41413;52.770;6.892;2023-03-01T15:29:22;9.40;91.50
52889;DHT22;41413;52.770;6.892;2023-03-01T15:32:00;9.40;91.40
52889;DHT22;41413;52.770;6.892;2023-03-01T15:36:57;9.10;91.60
52889;DHT22;41413;52.770;6.892;2023-03-01T15:39:40;9.20;91.70
52889;DHT22;41413;52.770;6.892;2023-03-01T15:44:40;9.10;92.40
52889;DHT22;41413;52.770;6.892;2023-03-01T15:47:30;9.00;92.50
52889;DHT22;41413;52.770;6.892;2023-03-01T15:49:59;9.10;92.80
52889;DHT22;41413;52.770;6.892;2023-03-01T15:52:40;9.00;93.00
52889;DHT22;41413;52.770;6.892;2023-03-01T15:55:22;8.90;93.50
52889;DHT22;41413;52.770;6.892;2023-03-01T15:57:50;8.90;93.20
52889;DHT22;41413;52.770;6.892;2023-03-01T16:00:24;8.80;93.20
52889;DHT22;41413;52.770;6.892;2023-03-01T16:02:51;8.80;93.30
52889;DHT22;41413;52.770;6.892;2023-03-01T16:05:26;8.80;93.40
52889;DHT22;41413;52.770;6.892;2023-03-01T16:07:54;8.80;93.80
52889;DHT22;41413;52.770;6.892;2023-03-01T16:10:21;8.80;93.80
52889;DHT22;41413;52.770;6.892;2023-03-01T16:12:49;8.70;93.90
52889;DHT22;41413;52.770;6.892;2023-03-01T16:15:27;8.70;94.20
52889;DHT22;41413;52.770;6.892;2023-03-01T16:17:58;8.70;94.00
52889;DHT22;41413;52.770;6.892;2023-03-01T16:20:24;8.50;94.00
52889;DHT22;41413;52.770;6.892;2023-03-01T16:22:58;8.50;94.10
52889;DHT22;41413;52.770;6.892;2023-03-01T16:25:26;8.40;94.40
52889;DHT22;41413;52.770;6.892;2023-03-01T16:27:53;8.40;94.50
52889;DHT22;41413;52.770;6.892;2023-03-01T16:30:22;8.30;94.70
52889;DHT22;41413;52.770;6.892;2023-03-01T16:32:49;8.30;94.70
52889;DHT22;41413;52.770;6.892;2023-03-01T16:35:19;8.20;95.10
52889;DHT22;41413;52.770;6.892;2023-03-01T16:37:47;8.10;95.40
52889;DHT22;41413;52.770;6.892;2023-03-01T16:40:20;8.00;95.50
52889;DHT22;41413;52.770;6.892;2023-03-01T16:42:50;8.00;95.50
52889;DHT22;41413;52.770;6.892;2023-03-01T16:45:18;7.90;95.90
52889;DHT22;41413;52.770;6.892;2023-03-01T16:47:51;7.80;96.20
52889;DHT22;41413;52.770;6.892;2023-03-01T16:50:21;7.80;96.10
52889;DHT22;41413;52.770;6.892;2023-03-01T16:52:48;7.80;96.30
52889;DHT22;41413;52.770;6.892;2023-03-01T16:55:15;7.80;96.30
52889;DHT22;41413;52.770;6.892;2023-03-01T16:57:41;7.70;96.60
52889;DHT22;41413;52.770;6.892;2023-03-01T17:00:10;7.70;96.80
52889;DHT22;41413;52.770;6.892;2023-03-01T17:02:40;7.60;97.40
52889;DHT22;41413;52.770;6.892;2023-03-01T17:05:08;7.50;97.50
52889;DHT22;41413;52.770;6.892;2023-03-01T17:07:37;7.50;97.80
52889;DHT22;41413;52.770;6.892;2023-03-01T17:10:06;7.50;97.80
52889;DHT22;41413;52.770;6.892;2023-03-01T17:12:34;7.40;98.00
52889;DHT22;41413;52.770;6.892;2023-03-01T17:15:02;7.30;98.30
52889;DHT22;41413;52.770;6.892;2023-03-01T17:17:30;7.30;98.50
52889;DHT22;41413;52.770;6.892;2023-03-01T17:19:56;7.20;98.70
52889;DHT22;41413;52.770;6.892;2023-03-01T17:22:23;7.20;99.10
52889;DHT22;41413;52.770;6.892;2023-03-01T17:24:50;7.10;99.40
52889;DHT22;41413;52.770;6.892;2023-03-01T17:27:17;7.10;99.50
52889;DHT22;41413;52.770;6.892;2023-03-01T17:29:44;7.10;99.70
52889;DHT22;41413;52.770;6.892;2023-03-01T17:32:12;7.00;99.90
52889;DHT22;41413;52.770;6.892;2023-03-01T17:34:39;6.90;99.90
52889;DHT22;41413;52.770;6.892;2023-03-01T17:37:06;6.80;99.90